createdAt,value
2018-06-10T00:02:25.881Z,73.70
2018-06-10T00:04:53.880Z,74.30
2018-06-10T00:07:21.878Z,74.60
2018-06-10T00:09:49.899Z,74.90
2018-06-10T00:12:17.876Z,75.00
2018-06-10T00:14:45.859Z,75.10
2018-06-10T00:17:13.878Z,75.30
2018-06-10T00:19:41.874Z,75.50
2018-06-10T00:22:09.908Z,76.30
2018-06-10T00:24:37.910Z,76.60
2018-06-10T00:27:05.911Z,77.20
2018-06-10T00:29:34.000Z,77.70
2018-06-10T00:32:02.036Z,77.90
2018-06-10T00:34:30.055Z,77.80
2018-06-10T00:36:58.066Z,78.50
2018-06-10T00:39:26.107Z,79.00
2018-06-10T00:41:54.114Z,79.10
2018-06-10T00:44:22.146Z,79.50
2018-06-10T00:46:50.154Z,79.30
2018-06-10T00:49:18.202Z,79.20
2018-06-10T00:51:56.976Z,79.60
2018-06-10T00:54:24.963Z,79.40
2018-06-10T00:56:53.434Z,79.90
2018-06-10T00:59:21.630Z,80.20
2018-06-10T01:01:49.657Z,80.30
2018-06-10T01:04:17.684Z,81.40
2018-06-10T01:06:45.690Z,81.70
2018-06-10T01:09:13.688Z,81.60
2018-06-10T01:11:41.682Z,81.60
2018-06-10T01:14:09.682Z,81.50
2018-06-10T01:16:37.716Z,82.10
2018-06-10T01:19:05.722Z,82.30
2018-06-10T01:21:33.714Z,82.60
2018-06-10T01:24:01.725Z,82.50
2018-06-10T01:26:35.159Z,83.00
2018-06-10T01:29:03.148Z,83.20
2018-06-10T01:31:31.184Z,83.40
2018-06-10T01:33:59.300Z,83.70
2018-06-10T01:36:27.375Z,83.40
2018-06-10T01:38:55.430Z,83.40
2018-06-10T01:41:23.434Z,83.50
2018-06-10T01:43:51.475Z,83.80
2018-06-10T01:46:19.471Z,84.10
2018-06-10T01:51:15.366Z,84.60
2018-06-10T01:53:43.364Z,85.00
2018-06-10T01:56:11.374Z,85.40
2018-06-10T01:58:39.428Z,85.40
2018-06-10T02:01:07.452Z,86.00
2018-06-10T02:03:35.473Z,86.00
2018-06-10T02:06:03.600Z,86.00
2018-06-10T02:08:31.667Z,86.40
2018-06-10T02:10:59.699Z,86.80
2018-06-10T02:13:27.707Z,86.80
2018-06-10T02:15:55.877Z,86.50
2018-06-10T02:18:23.907Z,87.00
2018-06-10T02:20:51.894Z,87.30
2018-06-10T02:23:19.945Z,87.50
2018-06-10T02:25:47.957Z,87.30
2018-06-10T02:28:15.956Z,87.60
2018-06-10T02:30:43.999Z,87.50
2018-06-10T02:33:12.007Z,87.40
2018-06-10T02:35:40.015Z,87.60
2018-06-10T02:38:08.098Z,87.70
2018-06-10T02:40:36.112Z,87.80
2018-06-10T02:43:04.108Z,87.80
2018-06-10T02:45:32.106Z,88.10
2018-06-10T02:48:00.089Z,88.00
2018-06-10T02:50:28.077Z,87.90
2018-06-10T02:52:56.062Z,88.40
2018-06-10T02:55:24.065Z,88.70
2018-06-10T02:57:52.163Z,89.40
2018-06-10T03:00:20.244Z,89.60
2018-06-10T03:02:48.284Z,89.90
2018-06-10T03:05:16.379Z,90.00
2018-06-10T03:07:44.438Z,89.50
2018-06-10T03:10:12.429Z,89.70
2018-06-10T03:12:40.500Z,89.80
2018-06-10T03:15:08.491Z,90.00
2018-06-10T03:20:04.418Z,90.20
2018-06-10T03:25:00.242Z,90.20
2018-06-10T03:27:28.241Z,90.20
2018-06-10T03:29:56.263Z,90.20
2018-06-10T03:32:24.555Z,90.20
2018-06-10T03:34:52.580Z,90.10
2018-06-10T03:37:20.563Z,90.10
2018-06-10T03:39:48.635Z,90.10
2018-06-10T03:42:16.674Z,90.10
2018-06-10T03:44:44.717Z,90.20
2018-06-10T03:47:12.763Z,90.40
2018-06-10T03:49:40.776Z,90.50
2018-06-10T03:52:08.778Z,90.50
2018-06-10T03:54:36.861Z,90.10
2018-06-10T03:57:04.875Z,90.20
2018-06-10T03:59:32.915Z,90.20
2018-06-10T04:02:01.078Z,90.40
2018-06-10T04:04:29.341Z,90.40
2018-06-10T04:06:57.375Z,90.50
2018-06-10T04:09:25.359Z,90.60
2018-06-10T04:11:53.368Z,90.60
2018-06-10T04:14:21.433Z,90.50
2018-06-10T04:16:49.493Z,90.40
2018-06-10T04:19:17.493Z,90.30
2018-06-10T04:21:45.495Z,90.30
2018-06-10T04:24:13.504Z,90.20
2018-06-10T04:26:41.550Z,90.30
2018-06-10T04:29:09.548Z,90.20
2018-06-10T04:31:37.625Z,90.10
2018-06-10T04:34:05.631Z,90.10
2018-06-10T04:36:33.682Z,90.00
2018-06-10T04:39:01.685Z,89.90
2018-06-10T04:41:29.698Z,89.80
2018-06-10T04:43:57.722Z,89.70
2018-06-10T04:46:25.710Z,89.90
2018-06-10T04:48:53.714Z,89.70
2018-06-10T04:51:21.752Z,89.40
2018-06-10T04:53:49.756Z,89.70
2018-06-10T04:56:17.756Z,89.50
2018-06-10T04:58:45.786Z,89.40
2018-06-10T05:01:13.843Z,88.80
2018-06-10T05:03:41.926Z,88.90
2018-06-10T05:06:10.004Z,89.10
2018-06-10T05:08:38.017Z,88.50
2018-06-10T05:11:06.142Z,88.50
2018-06-10T05:13:34.215Z,88.20
2018-06-10T05:16:02.387Z,88.10
2018-06-10T05:18:30.382Z,87.80
2018-06-10T05:20:58.427Z,87.70
2018-06-10T05:23:26.449Z,87.60
2018-06-10T05:25:54.463Z,87.30
2018-06-10T05:28:22.445Z,87.10
2018-06-10T05:30:50.445Z,87.10
2018-06-10T05:33:18.454Z,87.10
2018-06-10T05:35:46.458Z,86.90
2018-06-10T05:38:14.430Z,87.20
2018-06-10T05:43:10.259Z,87.50
2018-06-10T05:45:38.374Z,87.40
2018-06-10T05:48:06.622Z,87.00
2018-06-10T05:50:34.630Z,86.60
2018-06-10T05:53:02.975Z,87.10
2018-06-10T05:55:31.393Z,87.50
2018-06-10T05:57:59.758Z,87.80
2018-06-10T06:00:27.786Z,88.10
2018-06-10T06:02:55.830Z,88.60
2018-06-10T06:05:23.843Z,89.20
2018-06-10T06:07:51.838Z,89.60
2018-06-10T06:10:19.842Z,89.70
2018-06-10T06:12:47.847Z,89.20
2018-06-10T06:15:15.858Z,88.90
2018-06-10T06:17:43.949Z,88.80
2018-06-10T06:20:11.937Z,87.80
2018-06-10T06:22:39.967Z,87.20
2018-06-10T06:25:07.974Z,86.70
2018-06-10T06:27:36.087Z,87.10
2018-06-10T06:30:04.083Z,86.40
2018-06-10T06:32:32.283Z,85.90
2018-06-10T06:35:00.269Z,85.20
2018-06-10T06:37:28.285Z,84.50
2018-06-10T06:39:56.288Z,84.40
2018-06-10T06:42:24.330Z,83.30
2018-06-10T06:44:52.330Z,81.00
2018-06-10T06:47:20.353Z,79.80
2018-06-10T06:49:48.350Z,80.80
2018-06-10T06:52:16.348Z,81.50
2018-06-10T06:54:44.347Z,81.10
2018-06-10T06:57:12.434Z,81.20
2018-06-10T06:59:40.438Z,79.50
2018-06-10T07:02:08.511Z,80.30
2018-06-10T07:04:36.522Z,79.70
2018-06-10T07:07:04.531Z,79.20
2018-06-10T07:09:32.582Z,78.10
2018-06-10T07:12:00.766Z,78.30
2018-06-10T07:14:28.770Z,78.50
2018-06-10T07:16:56.868Z,79.50
2018-06-10T07:19:24.883Z,79.40
2018-06-10T07:21:52.974Z,79.50
2018-06-10T07:24:20.988Z,79.30
2018-06-10T07:26:49.012Z,79.60
2018-06-10T07:29:17.038Z,79.40
2018-06-10T07:31:45.103Z,79.50
2018-06-10T07:34:13.114Z,78.70
2018-06-10T07:36:41.115Z,77.70
2018-06-10T07:39:09.112Z,77.30
2018-06-10T07:41:37.190Z,76.90
2018-06-10T07:44:05.207Z,76.60
2018-06-10T07:46:33.243Z,76.90
2018-06-10T07:49:01.256Z,76.30
2018-06-10T07:51:29.273Z,75.80
2018-06-10T07:53:57.334Z,76.60
2018-06-10T07:56:32.175Z,76.60
2018-06-10T07:59:00.175Z,76.10
2018-06-10T08:01:28.197Z,77.00
2018-06-10T08:03:56.214Z,75.90
2018-06-10T08:06:24.227Z,75.40
2018-06-10T08:08:52.218Z,75.20
2018-06-10T08:11:20.227Z,75.40
2018-06-10T08:13:48.275Z,73.20
2018-06-10T08:16:16.531Z,73.30
2018-06-10T08:18:44.607Z,73.70
2018-06-10T08:21:12.583Z,72.70
2018-06-10T08:23:40.588Z,70.90
2018-06-10T08:26:08.579Z,71.00
2018-06-10T08:28:36.626Z,69.30
2018-06-10T08:31:04.647Z,68.90
2018-06-10T08:33:32.817Z,70.00
2018-06-10T08:36:00.830Z,68.40
2018-06-10T08:38:28.858Z,68.50
2018-06-10T08:40:56.850Z,68.10
2018-06-10T08:43:24.930Z,67.10
2018-06-10T08:45:52.939Z,67.80
2018-06-10T08:48:20.935Z,67.90
2018-06-10T08:50:49.055Z,67.40
2018-06-10T08:53:17.121Z,66.90
2018-06-10T08:55:45.200Z,67.00
2018-06-10T08:58:13.194Z,66.10
2018-06-10T09:00:41.291Z,66.70
2018-06-10T09:03:09.340Z,64.90
2018-06-10T09:05:37.344Z,65.40
2018-06-10T09:08:05.403Z,65.00
2018-06-10T09:10:33.388Z,64.00
2018-06-10T09:13:01.500Z,63.20
2018-06-10T09:15:29.509Z,62.10
2018-06-10T09:17:57.511Z,60.60
2018-06-10T09:20:25.681Z,61.10
2018-06-10T09:22:53.684Z,61.40
2018-06-10T09:25:21.720Z,61.60
2018-06-10T09:27:49.743Z,62.10
2018-06-10T09:30:17.836Z,59.40
2018-06-10T09:32:45.841Z,59.80
2018-06-10T09:35:13.850Z,60.40
2018-06-10T09:37:41.892Z,60.10
2018-06-10T09:40:09.895Z,59.60
2018-06-10T09:42:37.971Z,60.70
2018-06-10T09:45:06.949Z,59.60
2018-06-10T09:47:35.572Z,58.10
2018-06-10T09:50:03.626Z,58.60
2018-06-10T09:52:31.631Z,58.00
2018-06-10T09:54:59.649Z,58.50
2018-06-10T09:57:27.686Z,58.80
2018-06-10T09:59:55.756Z,58.10
2018-06-10T10:02:23.790Z,58.90
2018-06-10T10:04:51.890Z,59.70
2018-06-10T10:07:19.887Z,60.10
2018-06-10T10:09:47.916Z,60.40
2018-06-10T10:12:15.900Z,60.00
2018-06-10T10:14:44.012Z,59.20
2018-06-10T10:17:12.004Z,58.80
2018-06-10T10:19:40.005Z,56.70
2018-06-10T10:22:07.985Z,55.80
2018-06-10T10:24:36.009Z,55.00
2018-06-10T10:27:04.020Z,55.00
2018-06-10T10:29:32.053Z,54.80
2018-06-10T10:32:00.140Z,54.20
2018-06-10T10:34:28.135Z,54.50
2018-06-10T10:36:56.283Z,54.50
2018-06-10T10:39:24.266Z,55.50
2018-06-10T10:41:52.286Z,56.80
2018-06-10T10:44:20.365Z,56.40
2018-06-10T10:46:48.398Z,56.70
2018-06-10T10:49:16.460Z,55.90
2018-06-10T10:51:44.465Z,55.40
2018-06-10T10:54:12.546Z,53.50
2018-06-10T10:56:40.574Z,53.70
2018-06-10T10:59:08.626Z,52.30
2018-06-10T11:01:36.665Z,51.20
2018-06-10T11:04:04.666Z,50.20
2018-06-10T11:06:32.704Z,50.20
2018-06-10T11:09:00.713Z,49.00
2018-06-10T11:11:28.736Z,48.80
2018-06-10T11:13:56.738Z,48.20
2018-06-10T11:16:24.821Z,46.60
2018-06-10T11:18:52.810Z,46.50
2018-06-10T11:21:20.870Z,47.70
2018-06-10T11:23:48.910Z,46.70
2018-06-10T11:26:16.904Z,47.30
2018-06-10T11:28:44.921Z,46.60
2018-06-10T11:31:12.942Z,46.10
2018-06-10T11:33:40.946Z,47.30
2018-06-10T11:36:08.979Z,46.40
2018-06-10T11:38:36.984Z,45.40
2018-06-10T11:41:05.011Z,44.40
2018-06-10T11:43:33.018Z,44.10
2018-06-10T11:46:01.080Z,42.60
2018-06-10T11:53:25.019Z,45.50
2018-06-10T11:55:53.035Z,47.40
2018-06-10T11:58:21.050Z,49.00
2018-06-10T12:00:49.227Z,50.40
2018-06-10T12:03:17.248Z,52.90
2018-06-10T12:05:45.283Z,54.10
2018-06-10T12:08:13.295Z,54.10
2018-06-10T12:10:41.383Z,54.50
2018-06-10T12:13:10.188Z,54.90
2018-06-10T12:15:38.252Z,55.30
2018-06-10T12:18:06.254Z,55.30
2018-06-10T12:20:34.275Z,55.50
2018-06-10T12:23:02.280Z,56.00
2018-06-10T12:25:30.308Z,57.90
2018-06-10T12:27:58.677Z,58.50
2018-06-10T12:30:26.748Z,58.00
2018-06-10T12:32:54.767Z,57.50
2018-06-10T12:35:22.772Z,57.40
2018-06-10T12:37:50.800Z,56.60
2018-06-10T12:40:18.790Z,57.70
2018-06-10T12:42:46.848Z,57.60
2018-06-10T12:45:14.871Z,56.40
2018-06-10T12:47:42.934Z,56.20
2018-06-10T12:50:10.979Z,57.30
2018-06-10T12:52:39.024Z,56.50
2018-06-10T12:55:07.002Z,56.80
2018-06-10T12:57:35.048Z,56.10
2018-06-10T13:00:03.039Z,55.60
2018-06-10T13:02:31.167Z,57.90
2018-06-10T13:04:59.230Z,59.20
2018-06-10T13:07:27.248Z,59.90
2018-06-10T13:09:55.261Z,61.80
2018-06-10T13:12:23.292Z,61.90
2018-06-10T13:14:51.320Z,62.30
2018-06-10T13:17:19.335Z,62.10
2018-06-10T13:19:47.359Z,62.60
2018-06-10T13:22:15.366Z,64.30
2018-06-10T13:24:43.382Z,64.60
2018-06-10T13:27:11.412Z,64.20
2018-06-10T13:29:39.522Z,64.50
2018-06-10T13:32:07.550Z,64.70
2018-06-10T13:34:35.579Z,65.40
2018-06-10T13:37:03.586Z,64.20
2018-06-10T13:39:31.616Z,64.30
2018-06-10T13:41:59.610Z,63.60
2018-06-10T13:44:27.608Z,63.70
2018-06-10T13:46:55.614Z,63.80
2018-06-10T13:49:23.683Z,64.00
2018-06-10T13:51:51.739Z,63.80
2018-06-10T13:54:19.803Z,63.50
2018-06-10T13:56:47.864Z,63.50
2018-06-10T13:59:16.071Z,65.20
2018-06-10T14:01:44.098Z,67.00
2018-06-10T14:04:12.154Z,67.70
2018-06-10T14:06:40.184Z,68.90
2018-06-10T14:09:08.225Z,69.30
2018-06-10T14:11:36.272Z,70.20
2018-06-10T14:14:04.833Z,70.00
2018-06-10T14:16:32.867Z,69.50
2018-06-10T14:19:00.983Z,69.10
2018-06-10T14:21:29.061Z,69.00
2018-06-10T14:23:57.049Z,69.30
2018-06-10T14:26:25.078Z,69.60
2018-06-10T14:28:53.273Z,68.90
2018-06-10T14:31:21.375Z,69.10
2018-06-10T14:33:49.457Z,69.30
2018-06-10T14:36:17.454Z,69.30
2018-06-10T14:38:45.495Z,71.30
2018-06-10T14:41:13.525Z,72.50
2018-06-10T14:43:41.510Z,73.90
2018-06-10T14:46:09.531Z,75.40
2018-06-10T14:48:37.539Z,76.20
2018-06-10T14:51:05.564Z,77.50
2018-06-10T14:53:33.611Z,79.30
2018-06-10T14:56:01.608Z,81.60
2018-06-10T14:58:29.647Z,82.60
2018-06-10T15:00:57.644Z,81.60
2018-06-10T15:03:25.723Z,80.70
2018-06-10T15:05:53.787Z,81.20
2018-06-10T15:08:21.891Z,82.10
2018-06-10T15:10:49.896Z,83.60
2018-06-10T15:13:17.900Z,85.30
2018-06-10T15:15:45.899Z,84.80
2018-06-10T15:18:13.893Z,85.00
2018-06-10T15:20:41.884Z,85.30
2018-06-10T15:23:09.954Z,86.30
2018-06-10T15:25:37.938Z,85.60
2018-06-10T15:28:05.958Z,86.70
2018-06-10T15:30:34.052Z,86.30
2018-06-10T15:33:02.032Z,87.00
2018-06-10T15:35:30.020Z,87.30
2018-06-10T15:37:58.079Z,87.00
2018-06-10T15:40:26.077Z,86.50
2018-06-10T15:42:54.067Z,86.90
2018-06-10T15:45:22.116Z,86.60
2018-06-10T15:47:50.124Z,86.40
2018-06-10T15:50:18.183Z,86.30
2018-06-10T15:52:46.195Z,85.80
2018-06-10T15:55:14.192Z,85.40
2018-06-10T15:57:42.217Z,85.90
2018-06-10T16:00:10.229Z,87.10
2018-06-10T16:05:06.143Z,85.70
2018-06-10T16:07:34.130Z,84.20
2018-06-10T16:10:02.115Z,83.90
2018-06-10T16:12:30.123Z,84.10
2018-06-10T16:14:58.119Z,84.60
2018-06-10T16:17:26.123Z,85.00
2018-06-10T16:19:54.110Z,85.70
2018-06-10T16:22:22.118Z,86.40
2018-06-10T16:24:50.105Z,86.50
2018-06-10T16:27:18.214Z,86.60
2018-06-10T16:29:46.223Z,86.30
2018-06-10T16:32:14.254Z,86.40
2018-06-10T16:34:42.316Z,86.40
2018-06-10T16:37:10.355Z,85.50
2018-06-10T16:39:38.389Z,84.10
2018-06-10T16:42:06.406Z,83.50
2018-06-10T16:44:34.411Z,83.30
2018-06-10T16:47:02.500Z,83.20
2018-06-10T16:49:30.531Z,82.50
2018-06-10T16:51:58.543Z,82.80
2018-06-10T16:54:26.546Z,82.90
2018-06-10T16:56:54.630Z,83.50
2018-06-10T16:59:22.661Z,84.00
2018-06-10T17:01:50.676Z,85.10
2018-06-10T17:04:18.700Z,86.00
2018-06-10T17:06:46.746Z,86.50
2018-06-10T17:09:14.791Z,87.20
2018-06-10T17:11:42.812Z,88.00
2018-06-10T17:14:10.852Z,88.70
2018-06-10T17:16:38.867Z,89.40
2018-06-10T17:19:06.878Z,89.70
2018-06-10T17:21:34.900Z,89.80
2018-06-10T17:24:02.962Z,89.40
2018-06-10T17:26:31.012Z,89.60
2018-06-10T17:28:59.030Z,89.60
2018-06-10T17:31:27.052Z,90.10
2018-06-10T17:33:55.040Z,90.30
2018-06-10T17:36:23.042Z,90.70
2018-06-10T17:38:51.093Z,91.30
2018-06-10T17:41:19.114Z,91.50
2018-06-10T17:43:47.128Z,92.10
2018-06-10T17:46:15.203Z,91.30
2018-06-10T17:48:43.268Z,90.90
2018-06-10T17:51:11.249Z,90.40
2018-06-10T17:53:39.439Z,89.70
2018-06-10T17:56:07.420Z,90.40
2018-06-10T17:58:35.431Z,89.00
2018-06-10T18:01:03.451Z,88.90
2018-06-10T18:03:31.494Z,89.10
2018-06-10T18:05:59.916Z,89.10
2018-06-10T18:08:27.907Z,89.00
2018-06-10T18:10:55.922Z,89.10
2018-06-10T18:13:25.235Z,88.40
2018-06-10T18:15:53.266Z,88.90
2018-06-10T18:18:21.274Z,89.20
2018-06-10T18:20:49.326Z,88.40
2018-06-10T18:23:17.359Z,89.00
2018-06-10T18:25:45.366Z,89.10
2018-06-10T18:28:13.368Z,88.80
2018-06-10T18:30:41.382Z,88.70
2018-06-10T18:33:09.484Z,89.40
2018-06-10T18:38:05.432Z,89.50
2018-06-10T18:40:33.506Z,90.00
2018-06-10T18:43:01.696Z,90.60
2018-06-10T18:45:29.770Z,91.00
2018-06-10T18:47:57.772Z,91.30
2018-06-10T18:50:25.795Z,91.90
2018-06-10T18:52:53.830Z,92.30
2018-06-10T18:55:21.826Z,92.90
2018-06-10T18:57:49.842Z,93.00
2018-06-10T19:00:17.884Z,93.30
2018-06-10T19:02:45.897Z,93.40
2018-06-10T19:05:13.970Z,93.60
2018-06-10T19:07:42.004Z,93.40
2018-06-10T19:10:10.127Z,93.70
2018-06-10T19:12:38.135Z,94.10
2018-06-10T19:15:06.256Z,94.60
2018-06-10T19:17:34.284Z,94.80
2018-06-10T19:20:02.288Z,95.00
2018-06-10T19:22:30.312Z,95.20
2018-06-10T19:24:58.302Z,95.50
2018-06-10T19:27:26.302Z,95.30
2018-06-10T19:29:54.362Z,95.10
2018-06-10T19:32:22.455Z,95.30
2018-06-10T19:37:18.353Z,95.10
2018-06-10T19:39:46.359Z,95.20
2018-06-10T19:42:14.407Z,95.20
2018-06-10T19:44:42.412Z,95.10
2018-06-10T19:47:10.442Z,95.20
2018-06-10T19:49:38.494Z,95.20
2018-06-10T19:52:06.492Z,95.10
2018-06-10T19:54:34.639Z,95.00
2018-06-10T19:57:02.647Z,94.90
2018-06-10T19:59:30.719Z,94.90
2018-06-10T20:01:58.722Z,94.70
2018-06-10T20:04:26.735Z,94.90
2018-06-10T20:06:54.760Z,95.10
2018-06-10T20:09:22.780Z,95.30
2018-06-10T20:11:50.778Z,95.60
2018-06-10T20:14:18.789Z,95.80
2018-06-10T20:16:46.804Z,95.70
2018-06-10T20:19:14.827Z,95.80
2018-06-10T20:21:42.818Z,96.00
2018-06-10T20:24:10.840Z,95.80
2018-06-10T20:26:38.887Z,95.90
2018-06-10T20:29:06.884Z,95.90
2018-06-10T20:31:34.883Z,96.20
2018-06-10T20:34:02.879Z,96.20
2018-06-10T20:36:30.889Z,96.20
2018-06-10T20:38:58.893Z,96.30
2018-06-10T20:41:26.914Z,96.40
2018-06-10T20:43:54.913Z,96.20
2018-06-10T20:46:22.954Z,96.30
2018-06-10T20:48:50.983Z,96.30
2018-06-10T20:51:19.051Z,96.30
2018-06-10T20:53:47.038Z,96.40
2018-06-10T20:56:15.110Z,96.30
2018-06-10T20:58:43.162Z,96.20
2018-06-10T21:01:11.261Z,96.30
2018-06-10T21:03:39.311Z,96.40
2018-06-10T21:06:07.388Z,96.20
2018-06-10T21:08:35.383Z,96.20
2018-06-10T21:11:03.401Z,96.30
2018-06-10T21:13:31.502Z,96.30
2018-06-10T21:15:59.501Z,96.40
2018-06-10T21:20:55.412Z,96.50
2018-06-10T21:23:23.487Z,96.40
2018-06-10T21:25:51.556Z,96.50
2018-06-10T21:28:19.676Z,96.50
2018-06-10T21:30:47.662Z,96.70
2018-06-10T21:33:15.664Z,96.70
2018-06-10T21:35:43.667Z,96.70
2018-06-10T21:38:11.676Z,96.70
2018-06-10T21:40:39.711Z,96.60
2018-06-10T21:43:07.720Z,96.80
2018-06-10T21:45:35.741Z,96.70
2018-06-10T21:48:03.764Z,96.70
2018-06-10T21:50:31.843Z,96.80
2018-06-10T21:52:59.846Z,96.80
2018-06-10T21:55:27.853Z,96.80
2018-06-10T21:57:55.864Z,96.90
2018-06-10T22:00:24.963Z,96.90
2018-06-10T22:02:53.126Z,96.80
2018-06-10T22:05:21.290Z,96.80
2018-06-10T22:07:49.286Z,96.90
2018-06-10T22:12:45.194Z,97.20
2018-06-10T22:15:13.186Z,97.20
2018-06-10T22:17:41.243Z,97.30
2018-06-10T22:20:09.244Z,97.00
2018-06-10T22:22:37.271Z,97.30
2018-06-10T22:25:05.356Z,97.40
2018-06-10T22:27:33.360Z,97.80
2018-06-10T22:30:01.397Z,97.50
2018-06-10T22:32:29.396Z,97.50
2018-06-10T22:34:57.401Z,97.60
2018-06-10T22:37:25.415Z,97.60
2018-06-10T22:39:53.405Z,97.70
2018-06-10T22:42:21.460Z,97.60
2018-06-10T22:47:17.312Z,98.10
2018-06-10T22:49:45.295Z,97.80
2018-06-10T22:52:13.328Z,97.60
2018-06-10T22:54:44.255Z,97.60
2018-06-10T22:57:12.324Z,97.60
2018-06-10T22:59:40.322Z,97.50
2018-06-10T23:02:09.132Z,97.50
2018-06-10T23:04:37.133Z,97.40
2018-06-10T23:07:05.253Z,97.30
2018-06-10T23:09:33.202Z,97.30
2018-06-10T23:12:01.198Z,97.40
2018-06-10T23:14:29.210Z,97.30
2018-06-10T23:16:57.218Z,97.30
2018-06-10T23:19:26.291Z,97.40
2018-06-10T23:24:22.186Z,97.50
2018-06-10T23:26:50.221Z,97.50
2018-06-10T23:29:18.278Z,97.50
2018-06-10T23:31:46.275Z,97.50
2018-06-10T23:34:14.291Z,97.30
2018-06-10T23:36:42.346Z,97.10
2018-06-10T23:39:10.383Z,97.40
2018-06-10T23:41:38.482Z,97.40
2018-06-10T23:44:06.575Z,97.30
2018-06-10T23:46:34.575Z,97.20
2018-06-10T23:49:02.636Z,97.20
2018-06-10T23:51:30.682Z,97.20
2018-06-10T23:53:58.720Z,97.10
2018-06-10T23:56:26.744Z,97.00
2018-06-10T23:58:54.961Z,96.90
